SEJ1356 OPLA-OPKC
Flight info
| Callsign | SEJ1356 |
|---|---|
| Flight time | N/A |
| Altitude | 34000 |
| Route | MIMAL G214 RK J112 NH |
| Aircraft | B38M/M-SDE1FGHILORVWXY/HB1 |
Departure
| Time | 2026-04-25 16:56 |
|---|---|
| Airport | Allama Iqbal International Airport (OPLA) |
Arrival
| Time | N/A |
|---|---|
| Airport | Jinnah International Airport (OPKC) |
| Time | Latitude | Longitude | Altitude | Speed | Heading |
|---|---|---|---|---|---|
| 2026-04-25 16:26 | 31.51914 | 74.40943 | 720 ft | 0 kts | 90° |
| 2026-04-25 16:47 | 31.51915 | 74.40930 | 720 ft | 2 kts | 91° |
| 2026-04-25 16:47 | 31.51915 | 74.40911 | 722 ft | 2 kts | 92° |
| 2026-04-25 16:48 | 31.51916 | 74.40892 | 720 ft | 2 kts | 94° |
| 2026-04-25 16:48 | 31.51917 | 74.40872 | 720 ft | 2 kts | 97° |
| 2026-04-25 16:48 | 31.51920 | 74.40853 | 720 ft | 2 kts | 106° |
| 2026-04-25 16:48 | 31.51928 | 74.40837 | 720 ft | 2 kts | 159° |
| 2026-04-25 16:49 | 31.51936 | 74.40835 | 720 ft | 0 kts | 184° |
| 2026-04-25 16:51 | 31.51920 | 74.40835 | 722 ft | 6 kts | 181° |
| 2026-04-25 16:51 | 31.51905 | 74.40835 | 720 ft | 8 kts | 180° |
| 2026-04-25 16:52 | 31.51791 | 74.40833 | 723 ft | 11 kts | 186° |
| 2026-04-25 16:52 | 31.51719 | 74.40796 | 719 ft | 13 kts | 242° |
| 2026-04-25 16:52 | 31.51696 | 74.40690 | 722 ft | 14 kts | 236° |
| 2026-04-25 16:52 | 31.51601 | 74.40655 | 721 ft | 16 kts | 180° |
| 2026-04-25 16:53 | 31.51349 | 74.40652 | 720 ft | 20 kts | 175° |
| 2026-04-25 16:53 | 31.51203 | 74.40654 | 721 ft | 22 kts | 181° |
| 2026-04-25 16:53 | 31.51044 | 74.40648 | 721 ft | 23 kts | 182° |
| 2026-04-25 16:54 | 31.50897 | 74.40642 | 720 ft | 14 kts | 181° |
| 2026-04-25 16:54 | 31.50795 | 74.40631 | 721 ft | 16 kts | 189° |
| 2026-04-25 16:54 | 31.50701 | 74.40559 | 718 ft | 17 kts | 230° |
| 2026-04-25 16:54 | 31.50700 | 74.40440 | 717 ft | 18 kts | 335° |
| 2026-04-25 16:55 | 31.50842 | 74.40436 | 721 ft | 32 kts | 359° |
| 2026-04-25 16:55 | 31.51311 | 74.40442 | 720 ft | 100 kts | 1° |
| 2026-04-25 16:55 | 31.52199 | 74.40457 | 723 ft | 154 kts | 0° |
| 2026-04-25 16:55 | 31.53366 | 74.40482 | 1028 ft | 173 kts | 3° |
| 2026-04-25 16:56 | 31.54582 | 74.40530 | 1713 ft | 174 kts | 1° |
| 2026-04-25 16:56 | 31.55864 | 74.40562 | 2118 ft | 198 kts | 0° |
| 2026-04-25 16:56 | 31.57328 | 74.40593 | 2601 ft | 217 kts | 359° |
| 2026-04-25 16:56 | 31.58743 | 74.40151 | 3514 ft | 207 kts | 322° |
| 2026-04-25 16:57 | 31.59584 | 74.38742 | 4257 ft | 222 kts | 289° |
| 2026-04-25 16:57 | 31.59699 | 74.38143 | 4503 ft | 226 kts | 282° |
| 2026-04-25 16:57 | 31.59121 | 74.34998 | 5405 ft | 266 kts | 236° |
| 2026-04-25 16:57 | 31.57814 | 74.33368 | 5977 ft | 280 kts | 230° |
| 2026-04-25 16:58 | 31.56466 | 74.31667 | 6656 ft | 288 kts | 231° |
| 2026-04-25 16:58 | 31.55106 | 74.29923 | 7420 ft | 292 kts | 231° |
| 2026-04-25 16:58 | 31.53731 | 74.28147 | 8184 ft | 295 kts | 231° |
| 2026-04-25 16:58 | 31.52348 | 74.26354 | 8985 ft | 297 kts | 231° |
| 2026-04-25 16:59 | 31.50954 | 74.24542 | 9704 ft | 301 kts | 230° |
| 2026-04-25 16:59 | 31.49550 | 74.22709 | 10400 ft | 306 kts | 230° |
| 2026-04-25 16:59 | 31.48109 | 74.20825 | 10996 ft | 314 kts | 230° |
| 2026-04-25 16:59 | 31.46638 | 74.18902 | 11770 ft | 317 kts | 229° |
| 2026-04-25 17:00 | 31.45162 | 74.16976 | 12646 ft | 319 kts | 230° |
| 2026-04-25 17:00 | 31.43693 | 74.15063 | 13423 ft | 322 kts | 230° |
| 2026-04-25 17:00 | 31.42169 | 74.13080 | 14211 ft | 325 kts | 230° |
| 2026-04-25 17:00 | 31.40667 | 74.11129 | 14951 ft | 329 kts | 230° |
| 2026-04-25 17:01 | 31.39105 | 74.09103 | 15692 ft | 333 kts | 231° |
| 2026-04-25 17:01 | 31.37548 | 74.07082 | 16402 ft | 336 kts | 231° |
| 2026-04-25 17:01 | 31.35994 | 74.05068 | 17070 ft | 340 kts | 231° |
| 2026-04-25 17:01 | 31.34382 | 74.02980 | 17742 ft | 343 kts | 232° |
| 2026-04-25 17:02 | 31.32775 | 74.00898 | 18366 ft | 347 kts | 232° |
| 2026-04-25 17:02 | 31.31150 | 73.98797 | 18973 ft | 350 kts | 232° |
| 2026-04-25 17:02 | 31.29510 | 73.96677 | 19566 ft | 354 kts | 232° |
| 2026-04-25 17:02 | 31.28974 | 73.95983 | 19757 ft | 355 kts | 232° |
| 2026-04-25 17:03 | 31.26179 | 73.92372 | 20714 ft | 360 kts | 232° |
| 2026-04-25 17:03 | 31.24514 | 73.90223 | 21250 ft | 364 kts | 232° |
| 2026-04-25 17:03 | 31.22808 | 73.88021 | 21783 ft | 367 kts | 232° |
| 2026-04-25 17:03 | 31.21089 | 73.85804 | 22303 ft | 370 kts | 232° |
| 2026-04-25 17:04 | 31.19351 | 73.83565 | 22807 ft | 373 kts | 232° |
| 2026-04-25 17:04 | 31.17597 | 73.81306 | 23312 ft | 377 kts | 232° |
| 2026-04-25 17:04 | 31.15830 | 73.79032 | 23817 ft | 379 kts | 232° |
| 2026-04-25 17:04 | 31.14049 | 73.76741 | 24278 ft | 383 kts | 232° |
| 2026-04-25 17:05 | 31.12255 | 73.74435 | 24786 ft | 385 kts | 232° |
| 2026-04-25 17:05 | 31.08628 | 73.69775 | 25753 ft | 390 kts | 232° |
| 2026-04-25 17:05 | 31.06795 | 73.67424 | 26209 ft | 393 kts | 232° |
| 2026-04-25 17:06 | 31.04948 | 73.65055 | 26642 ft | 396 kts | 232° |
| 2026-04-25 17:06 | 31.03091 | 73.62675 | 27088 ft | 398 kts | 232° |
| 2026-04-25 17:06 | 31.01221 | 73.60281 | 27499 ft | 401 kts | 232° |
| 2026-04-25 17:06 | 30.99337 | 73.57870 | 27907 ft | 403 kts | 232° |
| 2026-04-25 17:07 | 30.97442 | 73.55447 | 28308 ft | 406 kts | 232° |
| 2026-04-25 17:07 | 30.95537 | 73.53012 | 28675 ft | 408 kts | 232° |
| 2026-04-25 17:07 | 30.93619 | 73.50562 | 29067 ft | 410 kts | 232° |
| 2026-04-25 17:07 | 30.91692 | 73.48103 | 29422 ft | 413 kts | 232° |
| 2026-04-25 17:08 | 30.90378 | 73.46426 | 29650 ft | 415 kts | 232° |
| 2026-04-25 17:08 | 30.87790 | 73.43126 | 30135 ft | 418 kts | 232° |
| 2026-04-25 17:08 | 30.86466 | 73.41440 | 30362 ft | 419 kts | 232° |
| 2026-04-25 17:08 | 30.84514 | 73.38956 | 30668 ft | 422 kts | 232° |
| 2026-04-25 17:09 | 30.82501 | 73.36394 | 30988 ft | 425 kts | 232° |
| 2026-04-25 17:09 | 30.80530 | 73.33888 | 31282 ft | 427 kts | 232° |
| 2026-04-25 17:09 | 30.78519 | 73.31331 | 31607 ft | 429 kts | 232° |
| 2026-04-25 17:09 | 30.76507 | 73.28779 | 32018 ft | 428 kts | 233° |
| 2026-04-25 17:10 | 30.74493 | 73.26226 | 32421 ft | 428 kts | 233° |
| 2026-04-25 17:10 | 30.72481 | 73.23678 | 32805 ft | 427 kts | 233° |
| 2026-04-25 17:10 | 30.70470 | 73.21132 | 33176 ft | 427 kts | 233° |
| 2026-04-25 17:10 | 30.68464 | 73.18593 | 33534 ft | 427 kts | 233° |
| 2026-04-25 17:11 | 30.66457 | 73.16054 | 33798 ft | 428 kts | 233° |
| 2026-04-25 17:11 | 30.64436 | 73.13498 | 33834 ft | 427 kts | 233° |
| 2026-04-25 17:11 | 30.57565 | 73.04764 | 33827 ft | 426 kts | 233° |
| 2026-04-25 17:12 | 30.49563 | 72.94613 | 33824 ft | 426 kts | 233° |
| 2026-04-25 17:12 | 30.41485 | 72.84523 | 33824 ft | 427 kts | 233° |
| 2026-04-25 17:13 | 30.36417 | 72.78185 | 33832 ft | 428 kts | 232° |
| 2026-04-25 17:13 | 30.31568 | 72.72161 | 33824 ft | 441 kts | 233° |
| 2026-04-25 17:14 | 30.27341 | 72.66877 | 33820 ft | 453 kts | 233° |
| 2026-04-25 17:14 | 30.20897 | 72.58768 | 33820 ft | 460 kts | 233° |
| 2026-04-25 17:15 | 30.12243 | 72.47995 | 33814 ft | 461 kts | 232° |
| 2026-04-25 17:15 | 30.10007 | 72.45258 | 33989 ft | 461 kts | 232° |
| 2026-04-25 17:15 | 30.07833 | 72.42581 | 34696 ft | 451 kts | 232° |
| 2026-04-25 17:16 | 30.05715 | 72.39963 | 35444 ft | 441 kts | 232° |
| 2026-04-25 17:16 | 30.03638 | 72.37390 | 36008 ft | 435 kts | 231° |
| 2026-04-25 17:16 | 30.01579 | 72.34838 | 36379 ft | 433 kts | 231° |
| 2026-04-25 17:16 | 29.99529 | 72.32299 | 36660 ft | 432 kts | 230° |
| 2026-04-25 17:17 | 29.97482 | 72.29765 | 36912 ft | 431 kts | 230° |
| 2026-04-25 17:17 | 29.95445 | 72.27245 | 37276 ft | 428 kts | 230° |
| 2026-04-25 17:17 | 29.93428 | 72.24754 | 37691 ft | 423 kts | 229° |
| 2026-04-25 17:17 | 29.91424 | 72.22279 | 38044 ft | 420 kts | 229° |
| 2026-04-25 17:18 | 29.89438 | 72.19825 | 38297 ft | 418 kts | 229° |
| 2026-04-25 17:18 | 29.87461 | 72.17369 | 38552 ft | 416 kts | 230° |
| 2026-04-25 17:18 | 29.85557 | 72.14858 | 38752 ft | 416 kts | 230° |
| 2026-04-25 17:18 | 29.83650 | 72.12356 | 38963 ft | 414 kts | 229° |
| 2026-04-25 17:19 | 29.81746 | 72.09870 | 39175 ft | 413 kts | 229° |
| 2026-04-25 17:19 | 29.79849 | 72.07394 | 39392 ft | 412 kts | 230° |
| 2026-04-25 17:19 | 29.77957 | 72.04927 | 39562 ft | 411 kts | 230° |
| 2026-04-25 17:19 | 29.76066 | 72.02463 | 39730 ft | 409 kts | 230° |
| 2026-04-25 17:20 | 29.72316 | 71.97581 | 39800 ft | 410 kts | 230° |
| 2026-04-25 17:20 | 29.68271 | 71.92323 | 39789 ft | 410 kts | 230° |
| 2026-04-25 17:21 | 29.64355 | 71.87241 | 39805 ft | 411 kts | 230° |
| 2026-04-25 17:21 | 29.56806 | 71.77373 | 39800 ft | 412 kts | 230° |
| 2026-04-25 17:22 | 29.50412 | 71.69086 | 39803 ft | 413 kts | 231° |
| 2026-04-25 17:22 | 29.45262 | 71.62532 | 39823 ft | 416 kts | 230° |
| 2026-04-25 17:23 | 29.40491 | 71.56365 | 39809 ft | 417 kts | 231° |
| 2026-04-25 17:23 | 29.32774 | 71.46401 | 39806 ft | 418 kts | 230° |
| 2026-04-25 17:24 | 29.24932 | 71.36503 | 39810 ft | 421 kts | 230° |
| 2026-04-25 17:24 | 29.17023 | 71.26564 | 39811 ft | 423 kts | 230° |
| 2026-04-25 17:25 | 29.09050 | 71.16620 | 39825 ft | 425 kts | 231° |
| 2026-04-25 17:25 | 29.01097 | 71.06726 | 39804 ft | 426 kts | 231° |
| 2026-04-25 17:26 | 28.93072 | 70.96737 | 39811 ft | 427 kts | 232° |
| 2026-04-25 17:26 | 28.88158 | 70.90669 | 39818 ft | 428 kts | 231° |
| 2026-04-25 17:27 | 28.80059 | 70.80623 | 39829 ft | 429 kts | 231° |
| 2026-04-25 17:27 | 28.74671 | 70.73915 | 39819 ft | 430 kts | 231° |
| 2026-04-25 17:28 | 28.63855 | 70.60571 | 39828 ft | 431 kts | 232° |
| 2026-04-25 17:28 | 28.55711 | 70.50559 | 39832 ft | 432 kts | 231° |